Time;durP1;ratioP1;P1;durP2;ratioP2;P2;SDS_P1;SDS_P2;PMS_P1;PMS_P2;Temp;Humidity;BMP_temperature;BMP_pressure;BME280_temperature;BME280_humidity;BME280_pressure;Samples;Min_cycle;Max_cycle;Signal;HPM_P1;HPM_P2
2023/12/26 00:00:30;;;;;;;;;;;10.00;99.90;;;;;;5143866;27;19960;-69
2023/12/26 00:02:57;;;;;;;;;;;10.00;99.90;;;;;;5135000;27;19954;-68
2023/12/26 00:05:23;;;;;;;;;;;10.00;99.90;;;;;;5134891;27;19923;-69
2023/12/26 00:07:48;;;;;;;;;;;10.00;99.90;;;;;;5140153;27;19911;-69
2023/12/26 00:10:15;;;;;;;;;;;10.00;99.90;;;;;;5137456;27;19961;-68
2023/12/26 00:12:42;;;;;;;;;;;10.00;99.90;;;;;;5134619;27;19921;-68
2023/12/26 00:15:08;;;;;;;;;;;10.00;99.90;;;;;;5134362;27;20414;-69
2023/12/26 00:17:33;;;;;;;;;;;9.90;99.90;;;;;;5142716;27;19911;-69
2023/12/26 00:19:59;;;;;;;;;;;10.00;99.90;;;;;;5126094;27;19915;-69
2023/12/26 00:22:24;;;;;;;;;;;10.00;99.90;;;;;;5136211;27;19915;-69
2023/12/26 00:24:50;;;;;;;;;;;9.90;99.90;;;;;;5138827;27;19911;-69
2023/12/26 00:27:15;;;;;;;;;;;10.00;99.90;;;;;;5146426;27;19950;-69
2023/12/26 00:29:41;;;;;;;;;;;10.00;99.90;;;;;;5138231;27;20252;-69
2023/12/26 00:32:06;;;;;;;;;;;9.90;99.90;;;;;;5119641;27;20687;-69
2023/12/26 00:34:32;;;;;;;;;;;10.00;99.90;;;;;;5145719;27;20002;-69
2023/12/26 00:36:58;;;;;;;;;;;9.90;99.90;;;;;;5122437;27;20007;-69
2023/12/26 00:39:23;;;;;;;;;;;9.90;99.90;;;;;;5130037;27;19947;-69
2023/12/26 00:41:49;;;;;;;;;;;10.00;99.90;;;;;;5125765;27;19907;-69
2023/12/26 00:44:14;;;;;;;;;;;10.00;99.90;;;;;;5133224;27;19919;-68
2023/12/26 00:46:40;;;;;;;;;;;9.90;99.90;;;;;;5137481;27;19910;-69
2023/12/26 00:49:06;;;;;;;;;;;9.90;99.90;;;;;;5145331;27;19921;-68
2023/12/26 00:51:31;;;;;;;;;;;9.90;99.90;;;;;;5144902;27;19915;-69
2023/12/26 00:53:57;;;;;;;;;;;9.90;99.90;;;;;;5139090;27;19912;-68
2023/12/26 00:56:22;;;;;;;;;;;9.90;99.90;;;;;;5141725;27;19922;-68
2023/12/26 00:58:48;;;;;;;;;;;9.90;99.90;;;;;;5139815;27;19912;-69
2023/12/26 01:01:14;;;;;;;;;;;9.90;99.90;;;;;;5132740;27;20279;-69
2023/12/26 01:03:39;;;;;;;;;;;9.90;99.90;;;;;;5133413;27;19911;-69
2023/12/26 01:06:05;;;;;;;;;;;9.90;99.90;;;;;;5137845;27;19942;-69
2023/12/26 01:08:31;;;;;;;;;;;9.90;99.90;;;;;;5126267;27;19911;-68
2023/12/26 01:10:56;;;;;;;;;;;9.90;99.90;;;;;;5126571;27;19984;-69
2023/12/26 01:13:22;;;;;;;;;;;9.90;99.90;;;;;;5124603;27;19992;-69
2023/12/26 01:15:47;;;;;;;;;;;9.90;99.90;;;;;;5139256;27;19911;-69
2023/12/26 01:18:13;;;;;;;;;;;9.90;99.90;;;;;;5127799;27;19918;-69
2023/12/26 01:20:38;;;;;;;;;;;9.90;99.90;;;;;;5124854;28;19911;-69
2023/12/26 01:23:04;;;;;;;;;;;9.90;99.90;;;;;;5132539;27;19935;-68
2023/12/26 01:25:30;;;;;;;;;;;9.90;99.90;;;;;;5145711;27;19911;-68
2023/12/26 01:27:55;;;;;;;;;;;9.90;99.90;;;;;;5137391;27;19918;-69
2023/12/26 01:30:21;;;;;;;;;;;9.90;99.90;;;;;;5127996;27;19972;-68
2023/12/26 01:32:46;;;;;;;;;;;9.90;99.90;;;;;;5118050;27;20018;-69
2023/12/26 01:35:12;;;;;;;;;;;9.80;99.90;;;;;;5133561;27;19918;-68
2023/12/26 01:37:37;;;;;;;;;;;9.90;99.90;;;;;;5145603;27;19918;-69
2023/12/26 01:40:03;;;;;;;;;;;9.80;99.90;;;;;;5137240;27;19907;-69
2023/12/26 01:42:29;;;;;;;;;;;9.90;99.90;;;;;;5133830;27;19912;-69
2023/12/26 01:44:54;;;;;;;;;;;9.80;99.90;;;;;;5140800;27;20121;-69
2023/12/26 01:47:20;;;;;;;;;;;9.80;99.90;;;;;;5125454;27;20271;-69
2023/12/26 01:49:45;;;;;;;;;;;9.80;99.90;;;;;;5136962;27;19919;-69
2023/12/26 01:52:12;;;;;;;;;;;9.80;99.90;;;;;;5145800;27;19922;-69
2023/12/26 01:54:38;;;;;;;;;;;9.80;99.90;;;;;;5137581;27;20001;-69
2023/12/26 01:57:06;;;;;;;;;;;9.80;99.90;;;;;;5137134;27;20331;-69
2023/12/26 01:59:33;;;;;;;;;;;9.80;99.90;;;;;;5145454;27;19926;-69
2023/12/26 02:01:59;;;;;;;;;;;9.80;99.90;;;;;;5130279;27;19911;-69
2023/12/26 02:04:24;;;;;;;;;;;9.80;99.90;;;;;;5143486;27;20006;-69
2023/12/26 02:06:50;;;;;;;;;;;9.80;99.90;;;;;;5140673;27;20001;-69
2023/12/26 02:09:16;;;;;;;;;;;9.80;99.90;;;;;;5127424;27;20018;-69
2023/12/26 02:11:42;;;;;;;;;;;9.80;99.90;;;;;;5129022;27;19987;-69
2023/12/26 02:14:09;;;;;;;;;;;9.80;99.90;;;;;;5132994;27;19954;-69
2023/12/26 02:16:37;;;;;;;;;;;9.80;99.90;;;;;;5140665;27;19911;-69
2023/12/26 02:19:03;;;;;;;;;;;9.80;99.90;;;;;;5149383;27;19911;-69
2023/12/26 02:21:28;;;;;;;;;;;9.80;99.90;;;;;;5137976;27;20342;-69
2023/12/26 02:23:55;;;;;;;;;;;9.70;99.90;;;;;;5128608;27;19994;-69
2023/12/26 02:26:21;;;;;;;;;;;9.80;99.90;;;;;;5127846;27;19930;-69
2023/12/26 02:28:48;;;;;;;;;;;9.80;99.90;;;;;;5128150;27;19999;-68
2023/12/26 02:31:14;;;;;;;;;;;9.70;99.90;;;;;;5136229;27;20354;-69
2023/12/26 02:33:40;;;;;;;;;;;9.70;99.90;;;;;;5131692;27;19907;-69
2023/12/26 02:36:06;;;;;;;;;;;9.70;99.90;;;;;;5128176;27;20554;-69
2023/12/26 02:38:32;;;;;;;;;;;9.70;99.90;;;;;;5130089;27;20245;-69
2023/12/26 02:40:57;;;;;;;;;;;9.70;99.90;;;;;;5133830;27;19918;-69
2023/12/26 02:43:23;;;;;;;;;;;9.70;99.90;;;;;;5143935;27;20398;-69
2023/12/26 02:45:49;;;;;;;;;;;9.70;99.90;;;;;;5127569;27;19971;-69
2023/12/26 02:48:16;;;;;;;;;;;9.70;99.90;;;;;;5136451;27;20367;-69
2023/12/26 02:50:42;;;;;;;;;;;9.70;99.90;;;;;;5140369;27;19911;-69
2023/12/26 02:53:08;;;;;;;;;;;9.70;99.90;;;;;;5148457;27;20347;-69
2023/12/26 02:55:33;;;;;;;;;;;9.70;99.90;;;;;;5136669;27;20018;-69
2023/12/26 02:57:59;;;;;;;;;;;9.70;99.90;;;;;;5142701;27;19955;-69
2023/12/26 03:00:24;;;;;;;;;;;9.70;99.90;;;;;;5139363;27;19915;-69
2023/12/26 03:02:50;;;;;;;;;;;9.70;99.90;;;;;;5134471;27;19911;-69
2023/12/26 03:05:15;;;;;;;;;;;9.70;99.90;;;;;;5140005;27;19987;-69
2023/12/26 03:07:41;;;;;;;;;;;9.70;99.90;;;;;;5144245;27;20380;-69
2023/12/26 03:10:09;;;;;;;;;;;9.60;99.90;;;;;;5143448;27;20682;-69
2023/12/26 03:12:35;;;;;;;;;;;9.60;99.90;;;;;;5145297;27;19958;-69
2023/12/26 03:15:00;;;;;;;;;;;9.70;99.90;;;;;;5142886;27;19968;-69
2023/12/26 03:17:26;;;;;;;;;;;9.60;99.90;;;;;;5145969;27;19962;-69
2023/12/26 03:19:51;;;;;;;;;;;9.60;99.90;;;;;;5148268;27;19918;-69
2023/12/26 03:22:18;;;;;;;;;;;9.60;99.90;;;;;;5138795;27;19911;-69
2023/12/26 03:24:44;;;;;;;;;;;9.60;99.90;;;;;;5120750;27;19915;-69
2023/12/26 03:27:10;;;;;;;;;;;9.60;99.90;;;;;;5127332;27;19925;-69
2023/12/26 03:29:36;;;;;;;;;;;9.60;99.90;;;;;;5126635;27;19919;-69
2023/12/26 03:32:01;;;;;;;;;;;9.60;99.90;;;;;;5135255;27;19941;-69
2023/12/26 03:34:27;;;;;;;;;;;9.60;99.90;;;;;;5116930;27;20002;-69
2023/12/26 03:36:52;;;;;;;;;;;9.60;99.90;;;;;;5132537;27;20596;-69
2023/12/26 03:39:18;;;;;;;;;;;9.60;99.90;;;;;;5146693;27;19917;-69
2023/12/26 03:41:48;;;;;;;;;;;9.60;99.90;;;;;;5131187;27;19911;-69
2023/12/26 03:44:17;;;;;;;;;;;9.60;99.90;;;;;;5138728;27;19911;-69
2023/12/26 03:46:43;;;;;;;;;;;9.60;99.90;;;;;;5127481;27;19912;-69
2023/12/26 03:49:09;;;;;;;;;;;9.60;99.90;;;;;;5135172;27;19911;-68
2023/12/26 03:51:34;;;;;;;;;;;9.60;99.90;;;;;;5126667;27;19915;-69
2023/12/26 03:54:00;;;;;;;;;;;9.60;99.90;;;;;;5115200;27;19911;-69
2023/12/26 03:56:32;;;;;;;;;;;9.60;99.90;;;;;;5138793;27;19938;-69
2023/12/26 03:58:58;;;;;;;;;;;9.60;99.90;;;;;;5134338;27;19960;-68
2023/12/26 04:01:24;;;;;;;;;;;9.60;99.90;;;;;;5126293;27;19911;-69
2023/12/26 04:03:50;;;;;;;;;;;9.60;99.90;;;;;;5112985;27;20287;-69
2023/12/26 04:06:16;;;;;;;;;;;9.60;99.90;;;;;;5141848;27;19911;-69
2023/12/26 04:08:42;;;;;;;;;;;9.50;99.90;;;;;;5146912;27;19963;-69
2023/12/26 04:11:08;;;;;;;;;;;9.50;99.90;;;;;;5146642;27;20520;-69
2023/12/26 04:13:34;;;;;;;;;;;9.50;99.90;;;;;;5129327;27;20270;-69
2023/12/26 04:16:00;;;;;;;;;;;9.50;99.90;;;;;;5146857;27;19911;-69
2023/12/26 04:18:25;;;;;;;;;;;9.50;99.90;;;;;;5128133;27;19915;-69
2023/12/26 04:20:51;;;;;;;;;;;9.50;99.90;;;;;;5139930;27;19911;-69
2023/12/26 04:23:16;;;;;;;;;;;9.50;99.90;;;;;;5129015;27;20388;-69
2023/12/26 04:25:42;;;;;;;;;;;9.50;99.90;;;;;;5132558;27;19911;-69
2023/12/26 04:28:07;;;;;;;;;;;9.50;99.90;;;;;;5126185;27;19911;-69
2023/12/26 04:30:33;;;;;;;;;;;9.50;99.90;;;;;;5133876;27;19915;-69
2023/12/26 04:32:58;;;;;;;;;;;9.50;99.90;;;;;;5134300;27;19912;-69
2023/12/26 04:35:24;;;;;;;;;;;9.50;99.90;;;;;;5142780;27;20297;-69
2023/12/26 04:37:50;;;;;;;;;;;9.50;99.90;;;;;;5125582;27;19948;-69
2023/12/26 04:40:15;;;;;;;;;;;9.50;99.90;;;;;;5114695;27;19965;-69
2023/12/26 04:42:41;;;;;;;;;;;9.50;99.90;;;;;;5137572;27;19911;-69
2023/12/26 04:45:07;;;;;;;;;;;9.50;99.90;;;;;;5130393;27;20641;-69
2023/12/26 04:47:33;;;;;;;;;;;9.50;99.90;;;;;;5142528;27;19917;-69
2023/12/26 04:49:59;;;;;;;;;;;9.50;99.90;;;;;;5125458;27;19915;-69
2023/12/26 04:52:24;;;;;;;;;;;9.50;99.90;;;;;;5134880;27;19917;-69
2023/12/26 04:54:50;;;;;;;;;;;9.50;99.90;;;;;;5136297;27;20470;-68
2023/12/26 04:57:15;;;;;;;;;;;9.50;99.90;;;;;;5135030;27;19915;-69
2023/12/26 04:59:41;;;;;;;;;;;9.50;99.90;;;;;;5132921;27;19999;-69
2023/12/26 05:02:06;;;;;;;;;;;9.50;99.90;;;;;;5131997;27;19917;-68
2023/12/26 05:04:32;;;;;;;;;;;9.50;99.90;;;;;;5133972;27;19993;-69
2023/12/26 05:06:57;;;;;;;;;;;9.50;99.90;;;;;;5139090;27;19911;-69
2023/12/26 05:09:23;;;;;;;;;;;9.50;99.90;;;;;;5135272;27;20459;-68
2023/12/26 05:11:48;;;;;;;;;;;9.50;99.90;;;;;;5125651;27;19916;-68
2023/12/26 05:14:14;;;;;;;;;;;9.50;99.90;;;;;;5132770;27;19912;-68
2023/12/26 05:16:40;;;;;;;;;;;9.50;99.90;;;;;;5105771;28;20002;-69
2023/12/26 05:19:07;;;;;;;;;;;9.50;99.90;;;;;;5131135;27;19918;-69
2023/12/26 05:21:32;;;;;;;;;;;9.50;99.90;;;;;;5125049;27;20400;-69
2023/12/26 05:23:58;;;;;;;;;;;9.50;99.90;;;;;;5126798;27;19933;-69
2023/12/26 05:26:23;;;;;;;;;;;9.50;99.90;;;;;;5124903;27;20609;-69
2023/12/26 05:28:49;;;;;;;;;;;9.50;99.90;;;;;;5112498;28;20313;-69
2023/12/26 05:31:18;;;;;;;;;;;9.40;99.90;;;;;;5124346;27;19926;-69
2023/12/26 05:33:43;;;;;;;;;;;9.50;99.90;;;;;;5125680;27;20002;-69
2023/12/26 05:36:09;;;;;;;;;;;9.50;99.90;;;;;;5134063;27;20006;-69
2023/12/26 05:38:35;;;;;;;;;;;9.40;99.90;;;;;;5124983;28;20611;-69
2023/12/26 05:41:02;;;;;;;;;;;9.50;99.90;;;;;;5106762;28;19912;-69
2023/12/26 05:43:30;;;;;;;;;;;9.40;99.90;;;;;;5126073;27;20292;-69
2023/12/26 05:45:55;;;;;;;;;;;9.40;99.90;;;;;;5113199;28;19919;-69
2023/12/26 05:48:21;;;;;;;;;;;9.40;99.90;;;;;;5135805;27;19915;-69
2023/12/26 05:50:46;;;;;;;;;;;9.40;99.90;;;;;;5117561;27;19919;-69
2023/12/26 05:53:12;;;;;;;;;;;9.40;99.90;;;;;;5129679;27;19918;-69
2023/12/26 05:55:38;;;;;;;;;;;9.40;99.90;;;;;;5132566;27;19998;-69
2023/12/26 05:58:03;;;;;;;;;;;9.40;99.90;;;;;;5149750;27;19915;-69
2023/12/26 06:00:29;;;;;;;;;;;9.40;99.90;;;;;;5140947;27;19918;-69
2023/12/26 06:02:54;;;;;;;;;;;9.40;99.90;;;;;;5125237;27;19911;-69
2023/12/26 06:05:20;;;;;;;;;;;9.40;99.90;;;;;;5137190;27;19911;-68
2023/12/26 06:07:45;;;;;;;;;;;9.40;99.90;;;;;;5133108;27;19915;-69
2023/12/26 06:10:11;;;;;;;;;;;9.40;99.90;;;;;;5122332;27;19922;-69
2023/12/26 06:12:36;;;;;;;;;;;9.40;99.90;;;;;;5134676;27;19911;-69
2023/12/26 06:15:02;;;;;;;;;;;9.30;99.90;;;;;;5138271;27;19923;-69
2023/12/26 06:17:29;;;;;;;;;;;9.40;99.90;;;;;;5149020;27;19964;-69
2023/12/26 06:19:54;;;;;;;;;;;9.30;99.90;;;;;;5130289;27;19911;-69
2023/12/26 06:22:20;;;;;;;;;;;9.40;99.90;;;;;;5131595;27;19975;-69
2023/12/26 06:24:45;;;;;;;;;;;9.30;99.90;;;;;;5133061;27;19911;-69
2023/12/26 06:27:11;;;;;;;;;;;9.40;99.90;;;;;;5132823;27;19922;-69
2023/12/26 06:29:37;;;;;;;;;;;9.40;99.90;;;;;;5139544;27;19966;-69
2023/12/26 06:32:02;;;;;;;;;;;9.30;99.90;;;;;;5134298;27;19920;-69
2023/12/26 06:34:28;;;;;;;;;;;9.30;99.90;;;;;;5128103;27;19927;-69
2023/12/26 06:36:53;;;;;;;;;;;9.30;99.90;;;;;;5134106;27;19907;-69
2023/12/26 06:39:19;;;;;;;;;;;9.30;99.90;;;;;;5139509;27;19911;-69
2023/12/26 06:41:44;;;;;;;;;;;9.30;99.90;;;;;;5132566;27;19918;-69
2023/12/26 06:44:10;;;;;;;;;;;9.30;99.90;;;;;;5139052;27;19915;-69
2023/12/26 06:46:42;;;;;;;;;;;9.30;99.90;;;;;;5136991;27;19920;-69
2023/12/26 06:49:08;;;;;;;;;;;9.30;99.90;;;;;;5134954;27;19915;-69
2023/12/26 06:51:34;;;;;;;;;;;9.30;99.90;;;;;;5148288;27;19907;-69
2023/12/26 06:53:59;;;;;;;;;;;9.30;99.90;;;;;;5142486;27;19915;-68
2023/12/26 06:56:25;;;;;;;;;;;9.30;99.90;;;;;;5127752;27;19924;-69
2023/12/26 06:58:52;;;;;;;;;;;9.30;99.90;;;;;;5137622;27;20373;-69
2023/12/26 07:01:18;;;;;;;;;;;9.30;99.90;;;;;;5124565;27;19912;-69
2023/12/26 07:03:43;;;;;;;;;;;9.30;99.90;;;;;;5144695;27;19911;-69
2023/12/26 07:06:09;;;;;;;;;;;9.20;99.90;;;;;;5116658;27;19918;-69
2023/12/26 07:08:34;;;;;;;;;;;9.30;99.90;;;;;;5139689;27;19963;-68
2023/12/26 07:11:00;;;;;;;;;;;9.20;99.90;;;;;;5133530;27;19922;-69
2023/12/26 07:13:26;;;;;;;;;;;9.20;99.90;;;;;;5119074;27;19970;-69
2023/12/26 07:15:52;;;;;;;;;;;9.20;99.90;;;;;;5137513;27;19950;-69
2023/12/26 07:18:17;;;;;;;;;;;9.20;99.90;;;;;;5120593;27;19916;-69
2023/12/26 07:20:43;;;;;;;;;;;9.20;99.90;;;;;;5144297;27;19920;-69
2023/12/26 07:23:08;;;;;;;;;;;9.20;99.90;;;;;;5126146;27;19968;-69
2023/12/26 07:25:34;;;;;;;;;;;9.20;99.90;;;;;;5125738;27;19911;-69
2023/12/26 07:27:59;;;;;;;;;;;9.20;99.90;;;;;;5135726;27;19914;-69
2023/12/26 07:30:25;;;;;;;;;;;9.10;99.90;;;;;;5127394;27;20041;-69
2023/12/26 07:32:50;;;;;;;;;;;9.20;99.90;;;;;;5147987;27;20026;-69
2023/12/26 07:35:16;;;;;;;;;;;9.10;99.90;;;;;;5147870;27;20010;-69
2023/12/26 07:37:42;;;;;;;;;;;9.10;99.90;;;;;;5130704;27;19998;-69
2023/12/26 07:40:08;;;;;;;;;;;9.10;99.90;;;;;;5131877;27;19911;-69
2023/12/26 07:42:33;;;;;;;;;;;9.10;99.90;;;;;;5142583;27;19912;-69
2023/12/26 07:44:59;;;;;;;;;;;9.10;99.90;;;;;;5141495;27;19989;-69
2023/12/26 07:47:24;;;;;;;;;;;9.10;99.90;;;;;;5138934;27;19915;-69
2023/12/26 07:49:51;;;;;;;;;;;9.10;99.90;;;;;;5138327;27;19959;-68
2023/12/26 07:52:16;;;;;;;;;;;9.10;99.90;;;;;;5139103;27;19934;-69
2023/12/26 07:54:42;;;;;;;;;;;9.10;99.90;;;;;;5142058;27;19912;-69
2023/12/26 07:57:08;;;;;;;;;;;9.10;99.90;;;;;;5142357;27;19915;-69
2023/12/26 07:59:33;;;;;;;;;;;9.10;99.90;;;;;;5138686;27;19919;-69
2023/12/26 08:01:59;;;;;;;;;;;9.10;99.90;;;;;;5141540;27;19922;-69
2023/12/26 08:04:24;;;;;;;;;;;9.10;99.90;;;;;;5108769;27;20018;-69
2023/12/26 08:06:50;;;;;;;;;;;9.10;99.90;;;;;;5138837;27;19986;-69
2023/12/26 08:09:15;;;;;;;;;;;9.10;99.90;;;;;;5130059;27;20026;-69
2023/12/26 08:11:41;;;;;;;;;;;9.00;99.90;;;;;;5143128;27;19939;-69
2023/12/26 08:14:06;;;;;;;;;;;9.10;99.90;;;;;;5140763;27;19911;-69
2023/12/26 08:16:32;;;;;;;;;;;9.10;99.90;;;;;;5144883;27;20021;-69
2023/12/26 08:18:58;;;;;;;;;;;9.00;99.90;;;;;;5131642;27;20293;-69
2023/12/26 08:21:24;;;;;;;;;;;9.00;99.90;;;;;;5143950;27;20004;-69
2023/12/26 08:23:50;;;;;;;;;;;9.00;99.90;;;;;;5146648;27;19989;-69
2023/12/26 08:26:15;;;;;;;;;;;9.00;99.90;;;;;;5117959;27;19923;-69
2023/12/26 08:28:41;;;;;;;;;;;9.00;99.90;;;;;;5136157;27;20034;-69
2023/12/26 08:31:07;;;;;;;;;;;9.00;99.90;;;;;;5137811;27;19919;-69
2023/12/26 08:33:35;;;;;;;;;;;9.00;99.90;;;;;;5146003;27;19918;-69
2023/12/26 08:36:01;;;;;;;;;;;9.00;99.90;;;;;;5132557;27;19942;-69
2023/12/26 08:38:27;;;;;;;;;;;9.00;99.90;;;;;;5133814;27;19954;-69
2023/12/26 08:40:53;;;;;;;;;;;9.00;99.90;;;;;;5139611;27;19918;-69
2023/12/26 08:43:19;;;;;;;;;;;9.00;99.90;;;;;;5127498;27;19963;-69
2023/12/26 08:45:44;;;;;;;;;;;9.00;99.90;;;;;;5129761;27;19915;-69
2023/12/26 08:48:10;;;;;;;;;;;8.90;99.90;;;;;;5146261;27;19911;-69
2023/12/26 08:50:36;;;;;;;;;;;9.00;99.90;;;;;;5137200;27;19916;-69
2023/12/26 08:53:01;;;;;;;;;;;8.90;99.90;;;;;;5146338;27;20257;-69
2023/12/26 08:55:27;;;;;;;;;;;8.90;99.90;;;;;;5125481;27;20365;-69
2023/12/26 08:57:52;;;;;;;;;;;8.90;99.90;;;;;;5146082;27;19917;-69
2023/12/26 09:00:20;;;;;;;;;;;8.90;99.90;;;;;;5145850;27;19911;-69
2023/12/26 09:02:46;;;;;;;;;;;8.90;99.90;;;;;;5137744;27;20002;-69
2023/12/26 09:05:11;;;;;;;;;;;8.90;99.90;;;;;;5139147;27;20354;-69
2023/12/26 09:07:37;;;;;;;;;;;8.90;99.90;;;;;;5136715;27;19910;-69
2023/12/26 09:10:04;;;;;;;;;;;8.90;99.90;;;;;;5118955;27;20720;-69
2023/12/26 09:12:29;;;;;;;;;;;8.90;99.90;;;;;;5117668;27;19935;-69
2023/12/26 09:14:55;;;;;;;;;;;8.90;99.90;;;;;;5123767;27;19915;-69
2023/12/26 09:17:20;;;;;;;;;;;8.90;99.90;;;;;;5132993;27;20006;-69
2023/12/26 09:19:46;;;;;;;;;;;8.90;99.90;;;;;;5122466;28;19912;-69
2023/12/26 09:22:11;;;;;;;;;;;8.90;99.90;;;;;;5132284;27;19918;-69
2023/12/26 09:24:37;;;;;;;;;;;8.90;99.90;;;;;;5118955;27;20007;-69
2023/12/26 09:27:03;;;;;;;;;;;8.90;99.90;;;;;;5137158;27;19912;-69
2023/12/26 09:29:28;;;;;;;;;;;8.90;99.90;;;;;;5142432;27;19915;-69
2023/12/26 09:31:54;;;;;;;;;;;8.90;99.90;;;;;;5149160;27;20050;-69
2023/12/26 09:34:19;;;;;;;;;;;8.90;99.90;;;;;;5148642;27;19911;-69
2023/12/26 09:36:45;;;;;;;;;;;8.80;99.90;;;;;;5145836;27;19988;-69
2023/12/26 09:39:11;;;;;;;;;;;8.90;99.90;;;;;;5136693;27;19912;-69
2023/12/26 09:41:36;;;;;;;;;;;8.80;99.90;;;;;;5119656;27;19911;-69
2023/12/26 09:44:02;;;;;;;;;;;8.80;99.90;;;;;;5125238;27;19926;-69
2023/12/26 09:46:28;;;;;;;;;;;8.80;99.90;;;;;;5127804;27;19916;-69
2023/12/26 09:48:54;;;;;;;;;;;8.90;99.90;;;;;;5127561;27;19908;-69
2023/12/26 09:51:23;;;;;;;;;;;8.90;99.90;;;;;;5108233;27;19951;-69
2023/12/26 09:53:57;;;;;;;;;;;8.90;99.90;;;;;;5121247;27;20544;-69
2023/12/26 09:56:24;;;;;;;;;;;8.90;99.90;;;;;;5144203;27;19919;-69
2023/12/26 09:58:49;;;;;;;;;;;9.00;99.90;;;;;;5144059;27;20019;-70
2023/12/26 10:01:15;;;;;;;;;;;9.00;99.90;;;;;;5127091;27;19915;-69
2023/12/26 10:03:41;;;;;;;;;;;9.00;99.90;;;;;;5130695;27;19915;-69
2023/12/26 10:06:08;;;;;;;;;;;9.00;99.90;;;;;;5140059;27;20607;-69
2023/12/26 10:08:33;;;;;;;;;;;9.00;99.90;;;;;;5147822;27;19959;-69
2023/12/26 10:10:59;;;;;;;;;;;9.00;99.90;;;;;;5133952;27;19978;-69
2023/12/26 10:13:24;;;;;;;;;;;9.00;99.90;;;;;;5123871;27;20301;-69
2023/12/26 10:15:50;;;;;;;;;;;9.10;99.90;;;;;;5136733;27;19908;-69
2023/12/26 10:18:16;;;;;;;;;;;9.10;99.90;;;;;;5127530;27;19922;-69
2023/12/26 10:20:41;;;;;;;;;;;9.00;99.90;;;;;;5114622;27;19915;-69
2023/12/26 10:23:07;;;;;;;;;;;9.00;99.90;;;;;;5132654;27;19966;-69
2023/12/26 10:25:33;;;;;;;;;;;9.00;99.90;;;;;;5124752;27;19919;-69
2023/12/26 10:27:59;;;;;;;;;;;9.00;99.90;;;;;;5129460;27;19954;-69
2023/12/26 10:30:26;;;;;;;;;;;9.00;99.90;;;;;;5116508;27;19957;-69
2023/12/26 10:33:01;;;;;;;;;;;9.00;99.90;;;;;;5139551;27;19919;-69
2023/12/26 10:35:27;;;;;;;;;;;9.00;99.90;;;;;;5137856;27;20014;-69
2023/12/26 10:37:55;;;;;;;;;;;9.00;99.90;;;;;;5129564;27;19998;-69
2023/12/26 10:40:21;;;;;;;;;;;9.00;99.90;;;;;;5133155;27;19947;-69
2023/12/26 10:42:48;;;;;;;;;;;9.00;99.90;;;;;;5113375;27;19994;-69
2023/12/26 10:45:14;;;;;;;;;;;9.00;99.90;;;;;;5108043;27;19919;-69
2023/12/26 10:47:42;;;;;;;;;;;8.90;99.90;;;;;;5135621;27;19914;-69
2023/12/26 10:50:08;;;;;;;;;;;8.90;99.90;;;;;;5126626;27;19916;-69
2023/12/26 10:52:37;;;;;;;;;;;8.90;99.90;;;;;;5136958;27;19911;-68
2023/12/26 10:55:04;;;;;;;;;;;9.00;99.90;;;;;;5133356;27;20351;-69
2023/12/26 10:57:32;;;;;;;;;;;9.00;99.90;;;;;;5109032;27;19998;-69
2023/12/26 13:51:27;;;;;;;;;;;9.30;99.90;;;;;;5127119;27;19923;-69
2023/12/26 13:54:12;;;;;;;;;;;9.30;99.90;;;;;;5127589;27;20648;-69
2023/12/26 13:56:57;;;;;;;;;;;9.30;99.90;;;;;;5140801;27;20003;-69
2023/12/26 13:59:41;;;;;;;;;;;9.20;99.90;;;;;;5142030;27;19922;-69
2023/12/26 14:02:25;;;;;;;;;;;9.20;99.90;;;;;;5133517;27;19911;-69
2023/12/26 14:05:09;;;;;;;;;;;9.20;99.90;;;;;;5129678;27;19915;-69
2023/12/26 14:07:57;;;;;;;;;;;9.20;99.90;;;;;;5125410;27;20268;-69
2023/12/26 14:10:41;;;;;;;;;;;9.20;99.90;;;;;;5126644;27;20310;-70
2023/12/26 14:13:25;;;;;;;;;;;9.20;99.90;;;;;;5136597;27;19998;-69
2023/12/26 14:16:10;;;;;;;;;;;9.20;99.90;;;;;;5114405;27;20014;-69
2023/12/26 14:18:54;;;;;;;;;;;9.20;99.90;;;;;;5148629;27;19958;-69
2023/12/26 14:21:38;;;;;;;;;;;9.10;99.90;;;;;;5148907;27;19951;-69
2023/12/26 14:24:22;;;;;;;;;;;9.10;99.90;;;;;;5135769;27;19919;-70
2023/12/26 14:27:08;;;;;;;;;;;9.10;99.90;;;;;;5148417;27;19918;-70
2023/12/26 14:29:52;;;;;;;;;;;9.10;99.90;;;;;;5138562;27;19916;-69
2023/12/26 14:32:36;;;;;;;;;;;9.10;99.90;;;;;;5144700;27;20370;-69
2023/12/26 14:35:20;;;;;;;;;;;9.10;99.90;;;;;;5135630;27;19911;-69
2023/12/26 14:38:05;;;;;;;;;;;9.10;99.90;;;;;;5118187;27;20738;-69
2023/12/26 14:40:49;;;;;;;;;;;9.00;99.90;;;;;;5110060;27;19950;-69
2023/12/26 14:43:33;;;;;;;;;;;9.00;99.90;;;;;;5141644;27;20397;-69
2023/12/26 14:46:17;;;;;;;;;;;9.00;99.90;;;;;;5134435;27;19911;-69
2023/12/26 14:49:01;;;;;;;;;;;9.00;99.90;;;;;;5145506;27;19911;-69
2023/12/26 14:51:45;;;;;;;;;;;9.00;99.90;;;;;;5144651;27;19925;-69
2023/12/26 14:54:29;;;;;;;;;;;9.00;99.90;;;;;;5124121;27;19950;-69
2023/12/26 14:57:14;;;;;;;;;;;9.00;99.90;;;;;;5140895;27;19914;-69
2023/12/26 14:59:58;;;;;;;;;;;9.00;99.90;;;;;;5148123;27;19911;-69
2023/12/26 15:02:25;;;;;;;;;;;9.00;99.90;;;;;;5148783;27;19991;-69
2023/12/26 15:04:51;;;;;;;;;;;8.90;99.90;;;;;;5123456;27;20073;-69
2023/12/26 15:07:17;;;;;;;;;;;8.90;99.90;;;;;;5148871;27;20002;-70
2023/12/26 15:09:42;;;;;;;;;;;8.90;99.90;;;;;;5130819;27;19983;-70
2023/12/26 15:12:08;;;;;;;;;;;8.90;99.90;;;;;;5131665;27;19912;-69
2023/12/26 15:14:33;;;;;;;;;;;8.90;99.90;;;;;;5130254;27;19911;-69
2023/12/26 15:16:59;;;;;;;;;;;8.90;99.90;;;;;;5126876;27;20539;-69
2023/12/26 15:19:25;;;;;;;;;;;8.90;99.90;;;;;;5105743;28;20715;-69
2023/12/26 15:21:50;;;;;;;;;;;8.90;99.90;;;;;;5122965;27;19911;-70
2023/12/26 15:24:16;;;;;;;;;;;8.90;99.90;;;;;;5125533;27;19911;-69
2023/12/26 15:26:42;;;;;;;;;;;8.80;99.90;;;;;;5124189;27;19918;-69
2023/12/26 15:29:08;;;;;;;;;;;8.90;99.90;;;;;;5126240;27;19991;-69
2023/12/26 15:31:33;;;;;;;;;;;8.80;99.90;;;;;;5106207;27;19943;-69
2023/12/26 15:33:59;;;;;;;;;;;8.80;99.90;;;;;;5125115;27;19918;-69
2023/12/26 15:36:25;;;;;;;;;;;8.80;99.90;;;;;;5125198;27;19916;-69
2023/12/26 15:38:51;;;;;;;;;;;8.80;99.90;;;;;;5105737;27;19938;-69
2023/12/26 15:41:17;;;;;;;;;;;8.80;99.90;;;;;;5125543;27;19912;-69
2023/12/26 15:43:42;;;;;;;;;;;8.80;99.90;;;;;;5127690;27;20387;-69
2023/12/26 15:46:18;;;;;;;;;;;8.80;99.90;;;;;;5125104;27;19956;-69
2023/12/26 15:48:44;;;;;;;;;;;8.80;99.90;;;;;;5127696;27;19911;-69
2023/12/26 15:51:10;;;;;;;;;;;8.80;99.90;;;;;;5125081;27;19920;-69
2023/12/26 15:53:35;;;;;;;;;;;8.80;99.90;;;;;;5125332;27;19915;-69
2023/12/26 15:56:01;;;;;;;;;;;8.80;99.90;;;;;;5125954;27;19911;-69
2023/12/26 15:58:27;;;;;;;;;;;8.80;99.90;;;;;;5125184;27;19911;-69
2023/12/26 16:00:53;;;;;;;;;;;8.70;99.90;;;;;;5124863;27;20265;-69
2023/12/26 16:03:19;;;;;;;;;;;8.70;99.90;;;;;;5125365;27;19916;-69
2023/12/26 16:05:44;;;;;;;;;;;8.70;99.90;;;;;;5124899;27;19969;-69
2023/12/26 16:08:10;;;;;;;;;;;8.70;99.90;;;;;;5125457;27;19954;-69
2023/12/26 16:10:36;;;;;;;;;;;8.70;99.90;;;;;;5132582;27;20443;-69
2023/12/26 16:13:01;;;;;;;;;;;8.70;99.90;;;;;;5121520;27;20026;-69
2023/12/26 16:15:27;;;;;;;;;;;8.70;99.90;;;;;;5125431;27;19968;-69
2023/12/26 16:17:53;;;;;;;;;;;8.70;99.90;;;;;;5106747;27;20594;-69
2023/12/26 16:20:19;;;;;;;;;;;8.70;99.90;;;;;;5125066;27;20001;-69
2023/12/26 16:22:44;;;;;;;;;;;8.70;99.90;;;;;;5126374;27;19924;-69
2023/12/26 16:25:10;;;;;;;;;;;8.70;99.90;;;;;;5123608;27;19908;-69
2023/12/26 16:27:35;;;;;;;;;;;8.70;99.90;;;;;;5114537;27;19915;-69
2023/12/26 16:30:01;;;;;;;;;;;8.60;99.90;;;;;;5136021;27;19923;-69
2023/12/26 16:32:26;;;;;;;;;;;8.70;99.90;;;;;;5124574;27;19920;-69
2023/12/26 16:34:52;;;;;;;;;;;8.70;99.90;;;;;;5125898;27;19911;-69
2023/12/26 16:37:17;;;;;;;;;;;8.60;99.90;;;;;;5106989;27;19912;-69
2023/12/26 16:39:43;;;;;;;;;;;8.60;99.90;;;;;;5132993;27;20344;-69
2023/12/26 16:42:09;;;;;;;;;;;8.60;99.90;;;;;;5130663;27;20375;-69
2023/12/26 16:44:45;;;;;;;;;;;8.60;99.90;;;;;;5120582;27;19914;-69
2023/12/26 16:47:12;;;;;;;;;;;8.60;99.90;;;;;;5125389;27;19964;-69
2023/12/26 16:49:39;;;;;;;;;;;8.60;99.90;;;;;;5114118;27;20542;-69
2023/12/26 16:52:05;;;;;;;;;;;8.60;99.90;;;;;;5106354;27;20586;-69
2023/12/26 16:54:30;;;;;;;;;;;8.60;99.90;;;;;;5130345;27;19911;-69
2023/12/26 16:56:56;;;;;;;;;;;8.50;99.90;;;;;;5130257;27;20438;-69
2023/12/26 16:59:21;;;;;;;;;;;8.60;99.90;;;;;;5123571;27;19927;-69
2023/12/26 17:01:47;;;;;;;;;;;8.60;99.90;;;;;;5121750;27;19912;-69
2023/12/26 17:04:13;;;;;;;;;;;8.60;99.90;;;;;;5127654;27;19918;-69
2023/12/26 17:06:39;;;;;;;;;;;8.60;99.90;;;;;;5134631;27;19963;-69
2023/12/26 17:09:05;;;;;;;;;;;8.50;99.90;;;;;;5097760;27;19912;-69
2023/12/26 17:11:30;;;;;;;;;;;8.60;99.90;;;;;;5119019;27;20321;-69
2023/12/26 17:13:56;;;;;;;;;;;8.50;99.90;;;;;;5128307;27;20360;-69
2023/12/26 17:16:22;;;;;;;;;;;8.50;99.90;;;;;;5132419;27;19911;-69
2023/12/26 17:18:48;;;;;;;;;;;8.50;99.90;;;;;;5123801;27;19911;-69